sensor_id;sensor_type;location;lat;lon;timestamp;temperature;humidity
7046;DHT22;3564;53.326;10.356;2023-10-13T00:01:57;16.60;99.90
7046;DHT22;3564;53.326;10.356;2023-10-13T00:04:28;16.60;99.90
7046;DHT22;3564;53.326;10.356;2023-10-13T00:06:54;16.60;99.90
7046;DHT22;3564;53.326;10.356;2023-10-13T00:09:22;16.60;99.90
7046;DHT22;3564;53.326;10.356;2023-10-13T00:12:05;16.60;99.90
7046;DHT22;3564;53.326;10.356;2023-10-13T00:14:35;16.60;99.90
7046;DHT22;3564;53.326;10.356;2023-10-13T00:17:05;16.60;99.90
7046;DHT22;3564;53.326;10.356;2023-10-13T00:19:38;16.60;99.90
7046;DHT22;3564;53.326;10.356;2023-10-13T00:22:06;16.60;99.90
7046;DHT22;3564;53.326;10.356;2023-10-13T00:24:36;16.60;99.90
7046;DHT22;3564;53.326;10.356;2023-10-13T00:27:20;16.60;99.90
7046;DHT22;3564;53.326;10.356;2023-10-13T00:30:12;16.60;99.90
7046;DHT22;3564;53.326;10.356;2023-10-13T00:32:52;16.60;99.90
7046;DHT22;3564;53.326;10.356;2023-10-13T00:35:28;16.60;99.90
7046;DHT22;3564;53.326;10.356;2023-10-13T00:37:57;16.60;99.90
7046;DHT22;3564;53.326;10.356;2023-10-13T00:40:27;16.70;99.90
7046;DHT22;3564;53.326;10.356;2023-10-13T00:42:59;16.70;99.90
7046;DHT22;3564;53.326;10.356;2023-10-13T00:45:47;16.70;99.90
7046;DHT22;3564;53.326;10.356;2023-10-13T00:48:32;16.70;99.90
7046;DHT22;3564;53.326;10.356;2023-10-13T00:51:03;16.70;99.90
7046;DHT22;3564;53.326;10.356;2023-10-13T00:53:36;16.70;99.90
7046;DHT22;3564;53.326;10.356;2023-10-13T00:56:12;16.70;99.90
7046;DHT22;3564;53.326;10.356;2023-10-13T00:58:53;16.70;99.90
7046;DHT22;3564;53.326;10.356;2023-10-13T01:01:23;16.70;99.90
7046;DHT22;3564;53.326;10.356;2023-10-13T01:04:10;16.70;99.90
7046;DHT22;3564;53.326;10.356;2023-10-13T01:06:38;16.80;99.90
7046;DHT22;3564;53.326;10.356;2023-10-13T01:09:06;16.80;99.90
7046;DHT22;3564;53.326;10.356;2023-10-13T01:11:48;16.80;99.90
7046;DHT22;3564;53.326;10.356;2023-10-13T01:14:18;16.80;99.90
7046;DHT22;3564;53.326;10.356;2023-10-13T01:16:46;16.80;99.90
7046;DHT22;3564;53.326;10.356;2023-10-13T01:19:13;16.80;99.90
7046;DHT22;3564;53.326;10.356;2023-10-13T01:21:39;16.80;99.90
7046;DHT22;3564;53.326;10.356;2023-10-13T01:24:10;16.80;99.90
7046;DHT22;3564;53.326;10.356;2023-10-13T01:26:38;16.80;99.90
7046;DHT22;3564;53.326;10.356;2023-10-13T01:29:07;16.80;99.90
7046;DHT22;3564;53.326;10.356;2023-10-13T01:31:45;16.80;99.90
7046;DHT22;3564;53.326;10.356;2023-10-13T01:34:20;16.90;99.90
7046;DHT22;3564;53.326;10.356;2023-10-13T01:36:55;16.90;99.90
7046;DHT22;3564;53.326;10.356;2023-10-13T01:39:23;16.90;99.90
7046;DHT22;3564;53.326;10.356;2023-10-13T01:41:58;16.90;99.90
7046;DHT22;3564;53.326;10.356;2023-10-13T01:44:24;16.90;99.90
7046;DHT22;3564;53.326;10.356;2023-10-13T01:46:58;16.90;99.90
7046;DHT22;3564;53.326;10.356;2023-10-13T01:49:27;16.90;99.90
7046;DHT22;3564;53.326;10.356;2023-10-13T01:51:55;16.90;99.90
7046;DHT22;3564;53.326;10.356;2023-10-13T01:54:21;16.90;99.90
7046;DHT22;3564;53.326;10.356;2023-10-13T01:56:47;16.90;99.90
7046;DHT22;3564;53.326;10.356;2023-10-13T01:59:14;16.90;99.90
7046;DHT22;3564;53.326;10.356;2023-10-13T02:01:41;16.90;99.90
7046;DHT22;3564;53.326;10.356;2023-10-13T02:04:07;17.00;99.90
7046;DHT22;3564;53.326;10.356;2023-10-13T02:06:42;17.00;99.90
7046;DHT22;3564;53.326;10.356;2023-10-13T02:09:12;17.00;99.90
7046;DHT22;3564;53.326;10.356;2023-10-13T02:11:38;17.00;99.90
7046;DHT22;3564;53.326;10.356;2023-10-13T02:14:04;17.00;99.90
7046;DHT22;3564;53.326;10.356;2023-10-13T02:16:30;17.00;99.90
7046;DHT22;3564;53.326;10.356;2023-10-13T02:18:57;17.00;99.90
7046;DHT22;3564;53.326;10.356;2023-10-13T02:21:23;17.00;99.90
7046;DHT22;3564;53.326;10.356;2023-10-13T02:23:57;17.00;99.90
7046;DHT22;3564;53.326;10.356;2023-10-13T02:26:32;17.00;99.90
7046;DHT22;3564;53.326;10.356;2023-10-13T02:29:06;17.00;99.90
7046;DHT22;3564;53.326;10.356;2023-10-13T02:31:50;17.00;99.90
7046;DHT22;3564;53.326;10.356;2023-10-13T02:34:22;17.00;99.90
7046;DHT22;3564;53.326;10.356;2023-10-13T02:36:51;17.00;99.90
7046;DHT22;3564;53.326;10.356;2023-10-13T02:39:22;17.00;99.90
7046;DHT22;3564;53.326;10.356;2023-10-13T02:42:13;17.10;99.90
7046;DHT22;3564;53.326;10.356;2023-10-13T02:44:51;17.10;99.90
7046;DHT22;3564;53.326;10.356;2023-10-13T02:47:21;17.10;99.90
7046;DHT22;3564;53.326;10.356;2023-10-13T02:49:52;17.10;99.90
7046;DHT22;3564;53.326;10.356;2023-10-13T02:52:23;17.10;99.90
7046;DHT22;3564;53.326;10.356;2023-10-13T02:54:50;17.10;99.90
7046;DHT22;3564;53.326;10.356;2023-10-13T02:57:22;17.10;99.90
7046;DHT22;3564;53.326;10.356;2023-10-13T02:59:49;17.10;99.90
7046;DHT22;3564;53.326;10.356;2023-10-13T03:02:37;17.10;99.90
7046;DHT22;3564;53.326;10.356;2023-10-13T03:05:09;17.10;99.90
7046;DHT22;3564;53.326;10.356;2023-10-13T03:07:35;17.10;99.90
7046;DHT22;3564;53.326;10.356;2023-10-13T03:10:02;17.10;99.90
7046;DHT22;3564;53.326;10.356;2023-10-13T03:12:40;17.10;99.90
7046;DHT22;3564;53.326;10.356;2023-10-13T03:15:07;17.10;99.90
7046;DHT22;3564;53.326;10.356;2023-10-13T03:17:44;17.10;99.90
7046;DHT22;3564;53.326;10.356;2023-10-13T03:20:14;17.10;99.90
7046;DHT22;3564;53.326;10.356;2023-10-13T03:22:42;17.10;99.90
7046;DHT22;3564;53.326;10.356;2023-10-13T03:25:14;17.10;99.90
7046;DHT22;3564;53.326;10.356;2023-10-13T03:27:56;17.10;99.90
7046;DHT22;3564;53.326;10.356;2023-10-13T03:30:22;17.10;99.90
7046;DHT22;3564;53.326;10.356;2023-10-13T03:32:55;17.10;99.90
7046;DHT22;3564;53.326;10.356;2023-10-13T03:35:21;17.10;99.90
7046;DHT22;3564;53.326;10.356;2023-10-13T03:37:56;17.10;99.90
7046;DHT22;3564;53.326;10.356;2023-10-13T03:40:22;17.20;99.90
7046;DHT22;3564;53.326;10.356;2023-10-13T03:42:49;17.20;99.90
7046;DHT22;3564;53.326;10.356;2023-10-13T03:45:25;17.20;99.90
7046;DHT22;3564;53.326;10.356;2023-10-13T03:47:52;17.20;99.90
7046;DHT22;3564;53.326;10.356;2023-10-13T03:50:18;17.20;99.90
7046;DHT22;3564;53.326;10.356;2023-10-13T03:52:55;17.20;99.90
7046;DHT22;3564;53.326;10.356;2023-10-13T03:55:27;17.30;99.90
7046;DHT22;3564;53.326;10.356;2023-10-13T03:57:54;17.30;99.90
7046;DHT22;3564;53.326;10.356;2023-10-13T04:00:21;17.30;99.90
7046;DHT22;3564;53.326;10.356;2023-10-13T04:02:53;17.30;99.90
7046;DHT22;3564;53.326;10.356;2023-10-13T04:05:28;17.30;99.90
7046;DHT22;3564;53.326;10.356;2023-10-13T04:08:10;17.30;99.90
7046;DHT22;3564;53.326;10.356;2023-10-13T04:10:56;17.30;99.90
7046;DHT22;3564;53.326;10.356;2023-10-13T04:13:22;17.30;99.90
7046;DHT22;3564;53.326;10.356;2023-10-13T04:16:09;17.30;99.90
7046;DHT22;3564;53.326;10.356;2023-10-13T04:19:01;17.30;99.90
7046;DHT22;3564;53.326;10.356;2023-10-13T04:21:26;17.30;99.90
7046;DHT22;3564;53.326;10.356;2023-10-13T04:24:15;17.40;99.90
7046;DHT22;3564;53.326;10.356;2023-10-13T04:26:50;17.40;99.90
7046;DHT22;3564;53.326;10.356;2023-10-13T04:29:35;17.40;99.90
7046;DHT22;3564;53.326;10.356;2023-10-13T04:32:22;17.40;99.90
7046;DHT22;3564;53.326;10.356;2023-10-13T04:35:01;17.40;99.90
7046;DHT22;3564;53.326;10.356;2023-10-13T04:37:36;17.50;99.90
7046;DHT22;3564;53.326;10.356;2023-10-13T04:40:20;17.40;99.90
7046;DHT22;3564;53.326;10.356;2023-10-13T04:42:50;17.50;99.90
7046;DHT22;3564;53.326;10.356;2023-10-13T04:45:39;17.40;99.90
7046;DHT22;3564;53.326;10.356;2023-10-13T04:48:12;17.40;99.90
7046;DHT22;3564;53.326;10.356;2023-10-13T04:50:48;17.50;99.90
7046;DHT22;3564;53.326;10.356;2023-10-13T04:53:18;17.50;99.90
7046;DHT22;3564;53.326;10.356;2023-10-13T04:56:06;17.60;99.90
7046;DHT22;3564;53.326;10.356;2023-10-13T04:59:00;17.60;99.90
7046;DHT22;3564;53.326;10.356;2023-10-13T05:01:45;17.50;99.90
7046;DHT22;3564;53.326;10.356;2023-10-13T05:04:22;17.60;99.90
7046;DHT22;3564;53.326;10.356;2023-10-13T05:07:04;17.60;99.90
7046;DHT22;3564;53.326;10.356;2023-10-13T05:09:48;17.60;99.90
7046;DHT22;3564;53.326;10.356;2023-10-13T05:12:35;17.60;99.90
7046;DHT22;3564;53.326;10.356;2023-10-13T05:15:19;17.60;99.90
7046;DHT22;3564;53.326;10.356;2023-10-13T05:18:04;17.60;99.90
7046;DHT22;3564;53.326;10.356;2023-10-13T05:20:48;17.70;99.90
7046;DHT22;3564;53.326;10.356;2023-10-13T05:23:32;17.80;99.90
7046;DHT22;3564;53.326;10.356;2023-10-13T05:26:16;17.80;99.90
7046;DHT22;3564;53.326;10.356;2023-10-13T05:29:03;17.70;99.90
7046;DHT22;3564;53.326;10.356;2023-10-13T05:31:47;17.80;99.90
7046;DHT22;3564;53.326;10.356;2023-10-13T05:34:34;17.80;99.90
7046;DHT22;3564;53.326;10.356;2023-10-13T05:37:19;17.80;99.90
7046;DHT22;3564;53.326;10.356;2023-10-13T05:40:03;17.80;99.90
7046;DHT22;3564;53.326;10.356;2023-10-13T05:42:47;17.80;99.90
7046;DHT22;3564;53.326;10.356;2023-10-13T05:45:35;17.90;99.90
7046;DHT22;3564;53.326;10.356;2023-10-13T05:48:19;18.00;99.90
7046;DHT22;3564;53.326;10.356;2023-10-13T05:51:00;18.00;99.90
7046;DHT22;3564;53.326;10.356;2023-10-13T05:53:44;18.00;99.90
7046;DHT22;3564;53.326;10.356;2023-10-13T05:56:28;17.90;99.90
7046;DHT22;3564;53.326;10.356;2023-10-13T05:59:12;18.00;99.90
7046;DHT22;3564;53.326;10.356;2023-10-13T06:01:56;18.00;99.90
7046;DHT22;3564;53.326;10.356;2023-10-13T06:04:41;18.10;99.90
7046;DHT22;3564;53.326;10.356;2023-10-13T06:07:24;18.10;99.90
7046;DHT22;3564;53.326;10.356;2023-10-13T06:10:09;18.00;99.90
7046;DHT22;3564;53.326;10.356;2023-10-13T06:12:53;18.10;99.90
7046;DHT22;3564;53.326;10.356;2023-10-13T06:15:40;18.10;99.90
7046;DHT22;3564;53.326;10.356;2023-10-13T06:18:27;18.10;99.90
7046;DHT22;3564;53.326;10.356;2023-10-13T06:21:11;18.10;99.90
7046;DHT22;3564;53.326;10.356;2023-10-13T06:23:55;18.10;99.90
7046;DHT22;3564;53.326;10.356;2023-10-13T06:26:39;18.10;99.90
7046;DHT22;3564;53.326;10.356;2023-10-13T06:29:23;18.20;99.90
7046;DHT22;3564;53.326;10.356;2023-10-13T06:31:53;18.20;99.90
7046;DHT22;3564;53.326;10.356;2023-10-13T06:34:25;18.20;99.90
7046;DHT22;3564;53.326;10.356;2023-10-13T06:37:04;18.20;99.90
7046;DHT22;3564;53.326;10.356;2023-10-13T06:39:58;18.20;99.90
7046;DHT22;3564;53.326;10.356;2023-10-13T06:42:38;18.20;99.90
7046;DHT22;3564;53.326;10.356;2023-10-13T06:45:08;18.20;99.90
7046;DHT22;3564;53.326;10.356;2023-10-13T06:47:35;18.30;99.90
7046;DHT22;3564;53.326;10.356;2023-10-13T06:50:06;18.30;99.90
7046;DHT22;3564;53.326;10.356;2023-10-13T06:52:43;18.30;99.90
7046;DHT22;3564;53.326;10.356;2023-10-13T06:55:09;18.20;99.90
7046;DHT22;3564;53.326;10.356;2023-10-13T06:57:40;18.30;99.90
7046;DHT22;3564;53.326;10.356;2023-10-13T07:00:08;18.30;99.90
7046;DHT22;3564;53.326;10.356;2023-10-13T07:02:44;18.30;99.90
7046;DHT22;3564;53.326;10.356;2023-10-13T07:05:11;18.30;99.90
7046;DHT22;3564;53.326;10.356;2023-10-13T07:07:39;18.30;99.90
7046;DHT22;3564;53.326;10.356;2023-10-13T07:10:11;18.30;99.90
7046;DHT22;3564;53.326;10.356;2023-10-13T07:12:40;18.30;99.90
7046;DHT22;3564;53.326;10.356;2023-10-13T07:15:09;18.40;99.90
7046;DHT22;3564;53.326;10.356;2023-10-13T07:17:41;18.40;99.90
7046;DHT22;3564;53.326;10.356;2023-10-13T07:20:10;18.40;99.90
7046;DHT22;3564;53.326;10.356;2023-10-13T07:22:51;18.40;99.90
7046;DHT22;3564;53.326;10.356;2023-10-13T07:25:33;18.40;99.90
7046;DHT22;3564;53.326;10.356;2023-10-13T07:28:03;18.40;99.90
7046;DHT22;3564;53.326;10.356;2023-10-13T07:30:29;18.40;99.90
7046;DHT22;3564;53.326;10.356;2023-10-13T07:32:56;18.40;99.90
7046;DHT22;3564;53.326;10.356;2023-10-13T07:35:25;18.40;99.90
7046;DHT22;3564;53.326;10.356;2023-10-13T07:37:51;18.40;99.90
7046;DHT22;3564;53.326;10.356;2023-10-13T07:40:23;18.40;99.90
7046;DHT22;3564;53.326;10.356;2023-10-13T07:42:55;18.40;99.90
7046;DHT22;3564;53.326;10.356;2023-10-13T07:45:29;18.40;99.90
7046;DHT22;3564;53.326;10.356;2023-10-13T07:48:11;18.40;99.90
7046;DHT22;3564;53.326;10.356;2023-10-13T07:51:03;18.40;99.90
7046;DHT22;3564;53.326;10.356;2023-10-13T07:53:30;18.40;99.90
7046;DHT22;3564;53.326;10.356;2023-10-13T07:56:01;18.50;99.90
7046;DHT22;3564;53.326;10.356;2023-10-13T07:58:38;18.50;99.90
7046;DHT22;3564;53.326;10.356;2023-10-13T08:01:18;18.50;99.90
7046;DHT22;3564;53.326;10.356;2023-10-13T08:03:44;18.60;99.90
7046;DHT22;3564;53.326;10.356;2023-10-13T08:06:15;18.60;99.90
7046;DHT22;3564;53.326;10.356;2023-10-13T08:08:40;18.60;99.90
7046;DHT22;3564;53.326;10.356;2023-10-13T08:11:14;18.60;99.90
7046;DHT22;3564;53.326;10.356;2023-10-13T08:13:59;18.70;99.90
7046;DHT22;3564;53.326;10.356;2023-10-13T08:16:26;18.60;99.90
7046;DHT22;3564;53.326;10.356;2023-10-13T08:19:14;18.60;99.90
7046;DHT22;3564;53.326;10.356;2023-10-13T08:21:44;18.70;99.90
7046;DHT22;3564;53.326;10.356;2023-10-13T08:24:42;18.70;99.90
7046;DHT22;3564;53.326;10.356;2023-10-13T08:27:08;18.70;99.90
7046;DHT22;3564;53.326;10.356;2023-10-13T08:29:52;18.70;99.90
7046;DHT22;3564;53.326;10.356;2023-10-13T08:32:24;18.70;99.90
7046;DHT22;3564;53.326;10.356;2023-10-13T08:35:02;18.70;99.90
7046;DHT22;3564;53.326;10.356;2023-10-13T08:37:34;18.70;99.90
7046;DHT22;3564;53.326;10.356;2023-10-13T08:40:18;18.70;99.90
7046;DHT22;3564;53.326;10.356;2023-10-13T08:43:06;18.60;99.90
7046;DHT22;3564;53.326;10.356;2023-10-13T08:45:36;18.60;99.90
7046;DHT22;3564;53.326;10.356;2023-10-13T08:48:02;18.50;99.90
7046;DHT22;3564;53.326;10.356;2023-10-13T08:50:57;18.50;99.90
7046;DHT22;3564;53.326;10.356;2023-10-13T08:53:29;18.50;99.90
7046;DHT22;3564;53.326;10.356;2023-10-13T08:56:14;18.50;99.90
7046;DHT22;3564;53.326;10.356;2023-10-13T08:58:49;18.60;99.90
7046;DHT22;3564;53.326;10.356;2023-10-13T09:01:23;18.60;99.90
7046;DHT22;3564;53.326;10.356;2023-10-13T09:04:12;18.40;99.90
7046;DHT22;3564;53.326;10.356;2023-10-13T09:06:48;18.40;99.90
7046;DHT22;3564;53.326;10.356;2023-10-13T09:12:29;18.50;99.90
7046;DHT22;3564;53.326;10.356;2023-10-13T09:15:00;18.40;99.90
7046;DHT22;3564;53.326;10.356;2023-10-13T09:17:45;18.40;99.90
7046;DHT22;3564;53.326;10.356;2023-10-13T09:20:16;18.30;99.90
7046;DHT22;3564;53.326;10.356;2023-10-13T09:22:45;18.40;99.90
7046;DHT22;3564;53.326;10.356;2023-10-13T09:25:40;18.40;99.90
7046;DHT22;3564;53.326;10.356;2023-10-13T09:28:28;18.30;99.90
7046;DHT22;3564;53.326;10.356;2023-10-13T09:30:55;18.40;99.90
7046;DHT22;3564;53.326;10.356;2023-10-13T09:33:26;18.40;99.90
7046;DHT22;3564;53.326;10.356;2023-10-13T09:36:13;18.40;99.90
7046;DHT22;3564;53.326;10.356;2023-10-13T09:38:45;18.40;99.90
7046;DHT22;3564;53.326;10.356;2023-10-13T09:41:37;18.40;99.90
7046;DHT22;3564;53.326;10.356;2023-10-13T09:44:03;18.50;99.90
7046;DHT22;3564;53.326;10.356;2023-10-13T09:46:30;18.50;99.90
7046;DHT22;3564;53.326;10.356;2023-10-13T09:49:05;18.60;99.90
7046;DHT22;3564;53.326;10.356;2023-10-13T09:51:33;18.60;99.90
7046;DHT22;3564;53.326;10.356;2023-10-13T09:54:13;18.70;99.90
7046;DHT22;3564;53.326;10.356;2023-10-13T09:56:47;18.70;99.90
7046;DHT22;3564;53.326;10.356;2023-10-13T09:59:34;18.70;99.90
7046;DHT22;3564;53.326;10.356;2023-10-13T10:02:03;18.80;99.90
7046;DHT22;3564;53.326;10.356;2023-10-13T10:04:35;18.80;99.90
7046;DHT22;3564;53.326;10.356;2023-10-13T10:07:28;18.90;99.90
7046;DHT22;3564;53.326;10.356;2023-10-13T10:09:59;18.90;99.90
7046;DHT22;3564;53.326;10.356;2023-10-13T10:15:35;19.10;99.90
7046;DHT22;3564;53.326;10.356;2023-10-13T10:18:22;19.20;99.90
7046;DHT22;3564;53.326;10.356;2023-10-13T10:20:48;19.20;99.90
7046;DHT22;3564;53.326;10.356;2023-10-13T10:23:27;19.20;99.90
7046;DHT22;3564;53.326;10.356;2023-10-13T10:26:13;19.20;99.90
7046;DHT22;3564;53.326;10.356;2023-10-13T10:28:46;19.30;99.90
7046;DHT22;3564;53.326;10.356;2023-10-13T10:31:12;19.20;99.90
7046;DHT22;3564;53.326;10.356;2023-10-13T10:33:39;19.30;99.90
7046;DHT22;3564;53.326;10.356;2023-10-13T10:36:05;19.30;99.90
7046;DHT22;3564;53.326;10.356;2023-10-13T10:38:31;19.40;99.90
7046;DHT22;3564;53.326;10.356;2023-10-13T10:41:01;19.50;99.90
7046;DHT22;3564;53.326;10.356;2023-10-13T10:43:34;19.60;99.90
7046;DHT22;3564;53.326;10.356;2023-10-13T10:46:13;19.60;99.90
7046;DHT22;3564;53.326;10.356;2023-10-13T10:48:42;19.70;99.90
7046;DHT22;3564;53.326;10.356;2023-10-13T10:51:14;19.80;99.90
7046;DHT22;3564;53.326;10.356;2023-10-13T10:53:50;19.90;99.90
7046;DHT22;3564;53.326;10.356;2023-10-13T10:56:18;20.00;99.90
7046;DHT22;3564;53.326;10.356;2023-10-13T10:59:04;20.10;99.90
7046;DHT22;3564;53.326;10.356;2023-10-13T11:01:31;20.10;99.90
7046;DHT22;3564;53.326;10.356;2023-10-13T11:04:08;20.20;99.90
7046;DHT22;3564;53.326;10.356;2023-10-13T11:06:37;20.30;99.90
7046;DHT22;3564;53.326;10.356;2023-10-13T11:09:07;20.30;99.90
7046;DHT22;3564;53.326;10.356;2023-10-13T11:11:51;20.30;99.90
7046;DHT22;3564;53.326;10.356;2023-10-13T11:14:23;20.30;99.90
7046;DHT22;3564;53.326;10.356;2023-10-13T11:16:49;20.30;99.90
7046;DHT22;3564;53.326;10.356;2023-10-13T11:19:41;20.30;99.90
7046;DHT22;3564;53.326;10.356;2023-10-13T11:22:16;20.40;99.90
7046;DHT22;3564;53.326;10.356;2023-10-13T11:25:04;20.50;99.90
7046;DHT22;3564;53.326;10.356;2023-10-13T11:27:40;20.50;99.90
7046;DHT22;3564;53.326;10.356;2023-10-13T11:30:11;20.60;99.90
7046;DHT22;3564;53.326;10.356;2023-10-13T11:33:17;20.60;99.90
7046;DHT22;3564;53.326;10.356;2023-10-13T11:35:49;20.60;99.90
7046;DHT22;3564;53.326;10.356;2023-10-13T11:38:31;20.60;99.90
7046;DHT22;3564;53.326;10.356;2023-10-13T11:41:06;20.60;99.90
7046;DHT22;3564;53.326;10.356;2023-10-13T11:43:46;20.70;99.90
7046;DHT22;3564;53.326;10.356;2023-10-13T11:46:15;20.70;99.90
7046;DHT22;3564;53.326;10.356;2023-10-13T11:48:50;20.70;99.90
7046;DHT22;3564;53.326;10.356;2023-10-13T11:51:19;20.70;99.90
7046;DHT22;3564;53.326;10.356;2023-10-13T11:53:57;20.70;99.90
7046;DHT22;3564;53.326;10.356;2023-10-13T11:56:32;20.80;99.90
7046;DHT22;3564;53.326;10.356;2023-10-13T11:58:57;20.80;99.90
7046;DHT22;3564;53.326;10.356;2023-10-13T12:01:27;20.80;99.90
7046;DHT22;3564;53.326;10.356;2023-10-13T12:04:14;20.80;99.90
7046;DHT22;3564;53.326;10.356;2023-10-13T12:06:59;20.90;99.90
7046;DHT22;3564;53.326;10.356;2023-10-13T12:09:46;21.00;99.90
7046;DHT22;3564;53.326;10.356;2023-10-13T12:12:24;21.00;99.90
7046;DHT22;3564;53.326;10.356;2023-10-13T12:14:50;21.00;99.90
7046;DHT22;3564;53.326;10.356;2023-10-13T12:17:21;21.00;99.90
7046;DHT22;3564;53.326;10.356;2023-10-13T12:20:10;21.10;99.90
7046;DHT22;3564;53.326;10.356;2023-10-13T12:22:39;21.20;99.90
7046;DHT22;3564;53.326;10.356;2023-10-13T12:25:05;21.30;99.90
7046;DHT22;3564;53.326;10.356;2023-10-13T12:27:53;21.30;99.90
7046;DHT22;3564;53.326;10.356;2023-10-13T12:30:25;21.40;99.90
7046;DHT22;3564;53.326;10.356;2023-10-13T12:33:13;21.50;99.90
7046;DHT22;3564;53.326;10.356;2023-10-13T12:35:44;21.60;99.90
7046;DHT22;3564;53.326;10.356;2023-10-13T12:38:24;21.60;99.90
7046;DHT22;3564;53.326;10.356;2023-10-13T12:41:05;21.60;99.90
7046;DHT22;3564;53.326;10.356;2023-10-13T12:43:49;21.60;99.90
7046;DHT22;3564;53.326;10.356;2023-10-13T12:46:33;21.60;99.90
7046;DHT22;3564;53.326;10.356;2023-10-13T12:49:17;21.60;99.90
7046;DHT22;3564;53.326;10.356;2023-10-13T12:52:03;21.70;99.90
7046;DHT22;3564;53.326;10.356;2023-10-13T12:54:29;21.80;99.90
7046;DHT22;3564;53.326;10.356;2023-10-13T12:57:01;21.80;99.90
7046;DHT22;3564;53.326;10.356;2023-10-13T12:59:27;21.90;99.90
7046;DHT22;3564;53.326;10.356;2023-10-13T13:01:53;21.90;99.90
7046;DHT22;3564;53.326;10.356;2023-10-13T13:04:19;21.90;99.90
7046;DHT22;3564;53.326;10.356;2023-10-13T13:06:53;22.00;99.90
7046;DHT22;3564;53.326;10.356;2023-10-13T13:09:19;22.00;99.90
7046;DHT22;3564;53.326;10.356;2023-10-13T13:11:52;21.90;99.90
7046;DHT22;3564;53.326;10.356;2023-10-13T13:14:25;22.00;99.90
7046;DHT22;3564;53.326;10.356;2023-10-13T13:17:02;22.00;99.90
7046;DHT22;3564;53.326;10.356;2023-10-13T13:19:32;22.00;99.90
7046;DHT22;3564;53.326;10.356;2023-10-13T13:22:10;22.00;99.90
7046;DHT22;3564;53.326;10.356;2023-10-13T13:24:39;22.00;99.90
7046;DHT22;3564;53.326;10.356;2023-10-13T13:27:20;22.00;99.90
7046;DHT22;3564;53.326;10.356;2023-10-13T13:29:47;22.10;99.90
7046;DHT22;3564;53.326;10.356;2023-10-13T13:32:13;22.10;99.90
7046;DHT22;3564;53.326;10.356;2023-10-13T13:34:49;22.10;99.90
7046;DHT22;3564;53.326;10.356;2023-10-13T13:37:30;22.10;99.90
7046;DHT22;3564;53.326;10.356;2023-10-13T13:39:59;22.10;99.90
7046;DHT22;3564;53.326;10.356;2023-10-13T13:42:47;22.10;99.90
7046;DHT22;3564;53.326;10.356;2023-10-13T13:45:17;22.20;99.90
7046;DHT22;3564;53.326;10.356;2023-10-13T13:47:55;22.20;99.90
7046;DHT22;3564;53.326;10.356;2023-10-13T13:52:51;22.20;99.90
7046;DHT22;3564;53.326;10.356;2023-10-13T13:55:19;22.10;99.90
7046;DHT22;3564;53.326;10.356;2023-10-13T13:57:44;22.10;99.90
7046;DHT22;3564;53.326;10.356;2023-10-13T14:00:11;22.10;99.90
7046;DHT22;3564;53.326;10.356;2023-10-13T14:02:43;22.10;99.90
7046;DHT22;3564;53.326;10.356;2023-10-13T14:05:15;22.20;99.90
7046;DHT22;3564;53.326;10.356;2023-10-13T14:07:42;22.20;99.90
7046;DHT22;3564;53.326;10.356;2023-10-13T14:10:08;22.20;99.90
7046;DHT22;3564;53.326;10.356;2023-10-13T14:12:42;22.30;99.90
7046;DHT22;3564;53.326;10.356;2023-10-13T14:15:28;22.30;99.90
7046;DHT22;3564;53.326;10.356;2023-10-13T14:17:54;22.20;99.90
7046;DHT22;3564;53.326;10.356;2023-10-13T14:20:22;22.20;99.90
7046;DHT22;3564;53.326;10.356;2023-10-13T14:22:47;22.20;99.90
7046;DHT22;3564;53.326;10.356;2023-10-13T14:25:14;22.20;99.90
7046;DHT22;3564;53.326;10.356;2023-10-13T14:27:43;22.20;99.90
7046;DHT22;3564;53.326;10.356;2023-10-13T14:30:09;22.20;99.90
7046;DHT22;3564;53.326;10.356;2023-10-13T14:32:35;22.20;99.90
7046;DHT22;3564;53.326;10.356;2023-10-13T14:35:06;22.30;99.90
7046;DHT22;3564;53.326;10.356;2023-10-13T14:37:40;22.30;99.90
7046;DHT22;3564;53.326;10.356;2023-10-13T14:40:06;22.50;99.90
7046;DHT22;3564;53.326;10.356;2023-10-13T14:42:38;22.50;99.90
7046;DHT22;3564;53.326;10.356;2023-10-13T14:45:08;22.60;99.90
7046;DHT22;3564;53.326;10.356;2023-10-13T14:47:42;22.60;99.90
7046;DHT22;3564;53.326;10.356;2023-10-13T14:50:09;22.60;99.90
7046;DHT22;3564;53.326;10.356;2023-10-13T14:52:50;22.60;99.90
7046;DHT22;3564;53.326;10.356;2023-10-13T14:55:16;22.70;99.90
7046;DHT22;3564;53.326;10.356;2023-10-13T14:57:49;22.70;99.90
7046;DHT22;3564;53.326;10.356;2023-10-13T15:00:16;22.70;99.90
7046;DHT22;3564;53.326;10.356;2023-10-13T15:02:53;22.80;99.90
7046;DHT22;3564;53.326;10.356;2023-10-13T15:05:19;22.80;99.90
7046;DHT22;3564;53.326;10.356;2023-10-13T15:07:45;22.80;99.90
7046;DHT22;3564;53.326;10.356;2023-10-13T15:10:16;22.70;99.90
7046;DHT22;3564;53.326;10.356;2023-10-13T15:12:50;22.70;99.90
7046;DHT22;3564;53.326;10.356;2023-10-13T15:15:20;22.70;99.90
7046;DHT22;3564;53.326;10.356;2023-10-13T15:17:46;22.70;99.90
7046;DHT22;3564;53.326;10.356;2023-10-13T17:40:48;22.20;99.90
7046;DHT22;3564;53.326;10.356;2023-10-13T17:43:15;22.20;99.90
7046;DHT22;3564;53.326;10.356;2023-10-13T17:45:41;22.30;99.90
7046;DHT22;3564;53.326;10.356;2023-10-13T17:48:06;22.30;99.90
7046;DHT22;3564;53.326;10.356;2023-10-13T17:50:32;22.30;99.90
7046;DHT22;3564;53.326;10.356;2023-10-13T17:52:59;22.30;99.90
7046;DHT22;3564;53.326;10.356;2023-10-13T17:55:27;22.20;99.90
7046;DHT22;3564;53.326;10.356;2023-10-13T17:57:55;22.10;99.90
7046;DHT22;3564;53.326;10.356;2023-10-13T18:00:24;22.10;99.90
7046;DHT22;3564;53.326;10.356;2023-10-13T18:02:50;22.10;99.90
7046;DHT22;3564;53.326;10.356;2023-10-13T18:05:22;22.10;99.90
7046;DHT22;3564;53.326;10.356;2023-10-13T18:07:48;22.10;99.90
7046;DHT22;3564;53.326;10.356;2023-10-13T18:10:14;22.10;99.90
7046;DHT22;3564;53.326;10.356;2023-10-13T18:12:40;22.10;99.90
7046;DHT22;3564;53.326;10.356;2023-10-13T18:15:15;22.00;99.90
7046;DHT22;3564;53.326;10.356;2023-10-13T18:17:46;22.00;99.90
7046;DHT22;3564;53.326;10.356;2023-10-13T18:20:12;21.80;99.90
7046;DHT22;3564;53.326;10.356;2023-10-13T18:22:44;21.70;99.90
7046;DHT22;3564;53.326;10.356;2023-10-13T18:25:10;21.60;99.90
7046;DHT22;3564;53.326;10.356;2023-10-13T18:27:40;21.50;99.90
7046;DHT22;3564;53.326;10.356;2023-10-13T18:30:08;21.40;99.90
7046;DHT22;3564;53.326;10.356;2023-10-13T18:32:38;21.30;99.90
7046;DHT22;3564;53.326;10.356;2023-10-13T18:35:04;21.10;99.90
7046;DHT22;3564;53.326;10.356;2023-10-13T18:37:34;21.00;99.90
7046;DHT22;3564;53.326;10.356;2023-10-13T18:40:02;21.00;99.90
7046;DHT22;3564;53.326;10.356;2023-10-13T18:42:32;21.00;99.90
7046;DHT22;3564;53.326;10.356;2023-10-13T18:44:57;20.90;99.90
7046;DHT22;3564;53.326;10.356;2023-10-13T18:47:23;20.90;99.90
7046;DHT22;3564;53.326;10.356;2023-10-13T18:49:49;20.90;99.90
7046;DHT22;3564;53.326;10.356;2023-10-13T18:52:14;20.90;99.90
7046;DHT22;3564;53.326;10.356;2023-10-13T18:54:43;20.90;99.90
7046;DHT22;3564;53.326;10.356;2023-10-13T18:57:08;20.90;99.90
7046;DHT22;3564;53.326;10.356;2023-10-13T18:59:41;20.90;99.90